Time;durP1;ratioP1;P1;durP2;ratioP2;P2;SDS_P1;SDS_P2;PMS_P1;PMS_P2;Temp;Humidity;BMP_temperature;BMP_pressure;BME280_temperature;BME280_humidity;BME280_pressure;Samples;Min_cycle;Max_cycle;Signal;HPM_P1;HPM_P2
2022/12/27 00:01:50;;;;;;;10.70;3.13;;;3.70;99.90;;;;;;5070205;28;20065;-39
2022/12/27 00:04:15;;;;;;;10.80;3.17;;;3.70;99.90;;;;;;5075512;28;20020;-51
2022/12/27 00:06:41;;;;;;;10.70;3.13;;;3.70;99.90;;;;;;5090718;28;20028;-42
2022/12/27 00:09:07;;;;;;;8.43;2.55;;;3.60;99.90;;;;;;5090908;28;20073;-51
2022/12/27 00:11:33;;;;;;;8.73;2.22;;;3.60;99.90;;;;;;5090726;28;20032;-41
2022/12/27 00:14:00;;;;;;;8.95;2.25;;;3.60;99.90;;;;;;5091199;28;20574;-38
2022/12/27 00:16:26;;;;;;;6.70;1.60;;;3.60;99.90;;;;;;5094665;28;20106;-43
2022/12/27 00:18:52;;;;;;;11.20;2.25;;;3.50;99.90;;;;;;5094702;28;20419;-39
2022/12/27 00:21:19;;;;;;;5.55;1.90;;;3.50;99.90;;;;;;5094873;28;20051;-45
2022/12/27 00:23:48;;;;;;;6.18;1.98;;;3.50;99.90;;;;;;5094881;28;20016;-41
2022/12/27 00:26:16;;;;;;;8.47;2.70;;;3.40;99.90;;;;;;5094433;28;20020;-39
2022/12/27 00:28:43;;;;;;;5.15;1.70;;;3.40;99.90;;;;;;5094650;28;20024;-41
2022/12/27 00:31:09;;;;;;;6.40;1.83;;;3.40;99.90;;;;;;5094320;28;20044;-43
2022/12/27 00:33:36;;;;;;;16.55;2.70;;;3.30;99.90;;;;;;5094497;28;20020;-40
2022/12/27 00:36:04;;;;;;;9.93;1.55;;;3.40;99.90;;;;;;5094256;28;20028;-42
2022/12/27 00:38:31;;;;;;;6.90;1.85;;;3.40;99.90;;;;;;5094176;28;20147;-39
2022/12/27 00:40:57;;;;;;;17.00;2.70;;;3.60;99.90;;;;;;5094134;28;20036;-47
2022/12/27 00:43:23;;;;;;;9.85;2.00;;;3.60;99.90;;;;;;5093704;28;20027;-39
2022/12/27 00:45:49;;;;;;;6.93;2.15;;;3.70;99.90;;;;;;5093858;28;20020;-42
2022/12/27 00:48:14;;;;;;;9.02;2.17;;;3.70;99.90;;;;;;5094070;28;20019;-40
2022/12/27 00:50:42;;;;;;;4.63;1.50;;;3.70;99.90;;;;;;5094015;28;20089;-40
2022/12/27 00:53:08;;;;;;;5.88;1.55;;;3.70;99.90;;;;;;5093959;28;20017;-39
2022/12/27 00:55:34;;;;;;;6.32;1.95;;;3.70;99.90;;;;;;5094095;28;20031;-39
2022/12/27 00:58:00;;;;;;;5.03;1.80;;;3.70;99.90;;;;;;5094201;28;20660;-40
2022/12/27 01:00:26;;;;;;;9.13;2.33;;;3.60;99.90;;;;;;5093962;28;20323;-39
2022/12/27 01:02:51;;;;;;;5.47;1.77;;;3.70;99.90;;;;;;5086404;28;20017;-38
2022/12/27 01:05:17;;;;;;;10.25;2.08;;;3.70;99.90;;;;;;5087350;28;20115;-43
2022/12/27 01:07:43;;;;;;;9.88;1.83;;;3.70;99.90;;;;;;5093628;28;20022;-40
2022/12/27 01:10:09;;;;;;;11.55;1.80;;;3.60;99.90;;;;;;5094065;28;20035;-38
2022/12/27 01:12:35;;;;;;;12.43;2.33;;;3.60;99.90;;;;;;5093570;28;20417;-38
2022/12/27 01:15:02;;;;;;;10.13;1.88;;;3.60;99.90;;;;;;5093789;28;20024;-38
2022/12/27 01:17:28;;;;;;;9.60;2.25;;;3.60;99.90;;;;;;5093129;28;20024;-38
2022/12/27 01:19:54;;;;;;;13.45;2.95;;;3.60;99.90;;;;;;5093719;28;20544;-53
2022/12/27 01:22:20;;;;;;;14.55;3.55;;;3.50;99.90;;;;;;5093451;28;20040;-47
2022/12/27 01:24:46;;;;;;;13.10;3.17;;;3.40;99.90;;;;;;5093216;28;20115;-47
2022/12/27 01:27:12;;;;;;;8.23;3.25;;;3.30;99.90;;;;;;5092833;28;20031;-47
2022/12/27 01:29:38;;;;;;;9.15;3.55;;;3.20;99.90;;;;;;5093053;28;20036;-41
2022/12/27 01:32:03;;;;;;;9.07;3.38;;;3.10;99.90;;;;;;5093538;28;20038;-47
2022/12/27 01:34:29;;;;;;;8.32;3.60;;;3.10;99.90;;;;;;5093099;28;20027;-50
2022/12/27 01:36:55;;;;;;;9.63;3.80;;;3.00;99.90;;;;;;5093046;28;20035;-51
2022/12/27 01:39:20;;;;;;;10.23;3.45;;;3.00;99.90;;;;;;5093672;28;20016;-50
2022/12/27 01:44:42;;;;;;;8.38;3.67;;;2.90;99.90;;;;;;5093293;28;20399;-49
2022/12/27 01:47:11;;;;;;;12.57;4.32;;;2.80;99.90;;;;;;5093296;28;20028;-53
2022/12/27 01:49:40;;;;;;;10.38;4.60;;;2.70;99.90;;;;;;5092379;28;20020;-39
2022/12/27 01:52:08;;;;;;;10.23;4.68;;;2.60;99.90;;;;;;5092898;28;20020;-43
2022/12/27 01:54:34;;;;;;;9.00;4.05;;;2.50;99.90;;;;;;5092974;28;20028;-39
2022/12/27 01:57:01;;;;;;;9.45;4.10;;;2.40;99.90;;;;;;5092841;28;20035;-51
2022/12/27 01:59:26;;;;;;;10.27;4.35;;;2.30;99.90;;;;;;5092816;28;20020;-40
2022/12/27 02:01:52;;;;;;;8.73;3.90;;;2.30;99.90;;;;;;5092477;28;20080;-46
2022/12/27 02:04:22;;;;;;;14.15;3.70;;;2.30;99.90;;;;;;5078354;28;20024;-41
2022/12/27 02:06:49;;;;;;;7.47;2.80;;;2.20;99.90;;;;;;5092769;28;20189;-43
2022/12/27 02:09:19;;;;;;;8.27;2.95;;;2.30;99.90;;;;;;5092870;28;20032;-41
2022/12/27 02:11:53;;;;;;;;;;;2.20;99.90;;;;;;5092826;28;20036;-40
2022/12/27 02:14:32;;;;;;;14.13;4.70;;;2.30;99.90;;;;;;5092404;28;19904;-42
2022/12/27 02:17:05;;;;;;;11.52;5.22;;;2.20;99.90;;;;;;5092512;28;20070;-40
2022/12/27 02:19:39;;;;;;;13.23;4.88;;;2.20;99.90;;;;;;5092213;28;20047;-39
2022/12/27 02:22:07;;;;;;;12.20;4.38;;;2.10;99.90;;;;;;5092400;28;20028;-41
2022/12/27 02:25:00;;;;;;;10.52;4.15;;;2.00;99.90;;;;;;5092222;28;20023;-39
2022/12/27 02:27:48;;;;;;;11.25;3.10;;;1.90;99.90;;;;;;5092400;28;20024;-47
2022/12/27 02:30:14;;;;;;;8.57;2.60;;;1.90;99.90;;;;;;5069432;28;20086;-39
2022/12/27 02:32:43;;;;;;;13.68;3.15;;;1.90;99.90;;;;;;5092080;28;20020;-52
2022/12/27 02:35:25;;;;;;;10.73;3.15;;;1.90;99.90;;;;;;5092238;28;20357;-44
2022/12/27 02:37:57;;;;;;;9.02;2.50;;;1.90;99.90;;;;;;5091447;28;20103;-43
2022/12/27 02:55:10;;;;;;;9.00;4.22;;;1.90;99.90;;;;;;5091871;28;20140;-47
2022/12/27 02:57:45;;;;;;;12.68;5.82;;;1.80;99.90;;;;;;5017013;28;20074;-38
2022/12/27 03:03:19;;;;;;;9.18;4.22;;;1.70;99.90;;;;;;5082533;28;20124;-42
2022/12/27 03:09:11;;;;;;;10.07;3.03;;;1.60;99.90;;;;;;5091377;28;20039;-39
2022/12/27 03:17:33;;;;;;;6.68;2.30;;;1.50;99.90;;;;;;5066091;28;20039;-43
2022/12/27 03:25:39;;;;;;;8.35;2.40;;;1.40;99.90;;;;;;5069570;28;20051;-41
2022/12/27 03:34:34;;;;;;;6.50;1.98;;;1.40;99.90;;;;;;5064531;28;20036;-44
2022/12/27 03:43:09;;;;;;;7.80;2.90;;;1.50;99.90;;;;;;5070462;28;20109;-42
2022/12/27 03:43:33;;;;;;;8.13;4.50;;;1.60;99.90;;;;;;5026582;28;20576;-45
2022/12/27 03:46:34;;;;;;;10.48;4.32;;;1.50;99.90;;;;;;5070684;28;20025;-40
2022/12/27 03:49:39;;;;;;;14.23;5.45;;;1.40;99.90;;;;;;5063962;28;20036;-45
2022/12/27 03:52:19;;;;;;;10.27;5.40;;;1.30;99.90;;;;;;5070717;28;20051;-38
2022/12/27 03:54:48;;;;;;;13.35;5.07;;;1.10;99.90;;;;;;5065333;28;20025;-40
2022/12/27 03:57:20;;;;;;;11.93;5.10;;;1.00;99.90;;;;;;5070582;28;20021;-41
2022/12/27 03:59:46;;;;;;;11.45;4.90;;;1.00;99.90;;;;;;5070659;28;20270;-38
2022/12/27 04:02:12;;;;;;;10.75;4.88;;;1.00;99.90;;;;;;5063904;28;20025;-42
2022/12/27 04:04:38;;;;;;;9.93;4.20;;;1.00;99.90;;;;;;5078876;28;20024;-38
2022/12/27 04:07:03;;;;;;;10.25;3.75;;;1.00;99.90;;;;;;5090687;28;20090;-43
2022/12/27 04:36:51;;;;;;;11.73;5.30;;;0.70;99.90;;;;;;5063512;28;20424;-47
2022/12/27 04:39:17;;;;;;;10.30;4.57;;;0.70;99.90;;;;;;5071046;28;20102;-46
2022/12/27 04:55:29;;;;;;;10.80;4.13;;;0.60;99.90;;;;;;5069892;28;20051;-44
2022/12/27 04:57:56;;;;;;;8.55;4.40;;;0.70;99.90;;;;;;5069730;28;20558;-48
2022/12/27 05:03:12;;;;;;;10.48;3.85;;;0.70;99.90;;;;;;5073681;28;20065;-41
2022/12/27 05:05:39;;;;;;;6.60;3.42;;;0.70;99.90;;;;;;5073618;28;20119;-38
2022/12/27 05:16:19;;;;;;;6.53;2.85;;;0.60;99.90;;;;;;5073312;28;20034;-39
2022/12/27 05:18:45;;;;;;;8.50;2.95;;;0.50;99.90;;;;;;5073274;28;20107;-47
2022/12/27 05:26:31;;;;;;;9.50;2.75;;;0.50;99.90;;;;;;5011220;28;20091;-47
2022/12/27 05:28:59;;;;;;;8.27;3.05;;;0.70;99.90;;;;;;5007030;28;20022;-49
2022/12/27 05:31:26;;;;;;;9.40;3.92;;;0.70;99.90;;;;;;4996119;28;20026;-46
2022/12/27 05:33:52;;;;;;;7.43;3.45;;;0.80;99.90;;;;;;5003915;28;20034;-47
2022/12/27 05:36:18;;;;;;;11.27;4.18;;;0.80;99.90;;;;;;5007776;28;20460;-49
2022/12/27 05:38:44;;;;;;;8.93;3.85;;;0.70;99.90;;;;;;5012330;28;20400;-49
2022/12/27 05:41:10;;;;;;;9.65;4.00;;;0.60;99.90;;;;;;5012678;28;20044;-49
2022/12/27 05:43:36;;;;;;;7.85;3.38;;;0.60;99.90;;;;;;5012237;28;20147;-51
2022/12/27 05:46:11;;;;;;;11.55;3.38;;;0.60;99.90;;;;;;5012837;28;20387;-49
2022/12/27 05:48:37;;;;;;;15.32;3.92;;;0.60;99.90;;;;;;5012867;28;20030;-50
2022/12/27 05:51:17;;;;;;;10.85;3.42;;;0.70;99.90;;;;;;5012758;28;20026;-49
2022/12/27 05:53:44;;;;;;;7.30;3.08;;;0.60;99.90;;;;;;5013241;28;20029;-49
2022/12/27 05:56:15;;;;;;;7.82;2.80;;;0.60;99.90;;;;;;5010532;28;20097;-48
2022/12/27 05:58:41;;;;;;;7.18;2.90;;;0.50;99.90;;;;;;5010009;28;20117;-48
2022/12/27 06:01:09;;;;;;;5.65;2.60;;;0.50;99.90;;;;;;5012844;28;20504;-47
2022/12/27 06:03:36;;;;;;;9.27;2.47;;;0.50;99.90;;;;;;5012757;28;20029;-47
2022/12/27 06:06:03;;;;;;;10.82;2.60;;;0.50;99.90;;;;;;5012805;28;20523;-50
2022/12/27 06:08:29;;;;;;;11.80;2.95;;;0.70;99.90;;;;;;5012156;28;20392;-47
2022/12/27 06:11:10;;;;;;;8.18;3.03;;;0.70;99.90;;;;;;5011674;28;20084;-51
2022/12/27 06:13:37;;;;;;;9.68;4.20;;;0.70;99.90;;;;;;5012363;28;20045;-47
2022/12/27 06:16:04;;;;;;;8.55;3.80;;;0.60;99.90;;;;;;5012611;28;20029;-50
2022/12/27 06:18:32;;;;;;;6.03;2.97;;;0.60;99.90;;;;;;5012258;28;20024;-52
2022/12/27 06:21:02;;;;;;;10.15;3.20;;;0.50;99.90;;;;;;5012893;28;20026;-49
2022/12/27 06:23:28;;;;;;;5.97;2.83;;;0.50;99.90;;;;;;5012385;28;20125;-46
2022/12/27 06:25:53;;;;;;;7.75;2.38;;;0.50;99.90;;;;;;5012404;28;20065;-47
2022/12/27 06:28:19;;;;;;;7.65;2.30;;;0.60;99.90;;;;;;5012201;28;20018;-48
2022/12/27 06:30:44;;;;;;;5.18;2.20;;;0.50;99.90;;;;;;5012264;28;20042;-46
2022/12/27 06:33:10;;;;;;;10.48;2.42;;;0.50;99.90;;;;;;5012073;28;20415;-49
2022/12/27 06:35:35;;;;;;;8.15;2.10;;;0.50;99.90;;;;;;5012124;28;20030;-47
2022/12/27 06:38:01;;;;;;;4.97;1.88;;;0.50;99.90;;;;;;5011278;28;20421;-46
2022/12/27 06:40:27;;;;;;;6.95;2.50;;;0.50;99.90;;;;;;5012175;28;20041;-49
2022/12/27 06:42:52;;;;;;;8.43;1.95;;;0.60;99.90;;;;;;5011739;28;20022;-47
2022/12/27 06:45:18;;;;;;;7.00;2.33;;;0.60;99.90;;;;;;5012147;28;20119;-46
2022/12/27 06:47:43;;;;;;;6.93;2.25;;;0.60;99.90;;;;;;5011817;28;20361;-49
2022/12/27 06:50:09;;;;;;;9.50;2.47;;;0.60;99.90;;;;;;4997608;28;20114;-47
2022/12/27 06:52:35;;;;;;;6.72;2.42;;;0.70;99.90;;;;;;4992271;28;20026;-46
2022/12/27 06:55:00;;;;;;;6.72;2.30;;;0.80;99.90;;;;;;4992067;28;20358;-47
2022/12/27 06:57:26;;;;;;;9.15;2.80;;;0.90;99.90;;;;;;4992091;28;20037;-52
2022/12/27 06:59:52;;;;;;;7.18;3.08;;;0.80;99.90;;;;;;4991879;28;20038;-52
2022/12/27 07:02:18;;;;;;;11.50;3.08;;;0.90;99.90;;;;;;4991730;28;20053;-53
2022/12/27 07:04:44;;;;;;;8.50;3.47;;;0.90;99.90;;;;;;4992236;28;20029;-47
2022/12/27 07:07:09;;;;;;;7.72;2.33;;;0.90;99.90;;;;;;4991405;28;20377;-50
2022/12/27 07:09:35;;;;;;;4.47;2.00;;;0.80;99.90;;;;;;4992082;28;20080;-54
2022/12/27 07:12:01;;;;;;;5.72;1.90;;;0.80;99.90;;;;;;4991579;28;20556;-47
2022/12/27 07:14:27;;;;;;;6.35;1.80;;;0.80;99.90;;;;;;4974567;28;20093;-50
2022/12/27 07:16:52;;;;;;;6.50;1.98;;;0.90;99.90;;;;;;4991785;28;20075;-48
2022/12/27 07:19:18;;;;;;;9.30;2.38;;;0.90;99.90;;;;;;4991785;28;20018;-50
2022/12/27 07:21:43;;;;;;;8.43;2.70;;;1.00;99.90;;;;;;4991344;28;20445;-49
2022/12/27 07:24:09;;;;;;;6.35;2.67;;;1.00;99.90;;;;;;4989397;28;20046;-46
2022/12/27 07:26:35;;;;;;;8.90;3.05;;;1.00;99.90;;;;;;4991223;28;20058;-50
2022/12/27 07:29:01;;;;;;;7.55;2.80;;;1.00;99.90;;;;;;4991060;28;20021;-47
2022/12/27 07:31:30;;;;;;;8.98;3.33;;;1.10;99.90;;;;;;4996571;28;20026;-48
2022/12/27 07:33:56;;;;;;;11.40;3.20;;;1.20;99.90;;;;;;5010827;28;20029;-47
2022/12/27 07:36:25;;;;;;;8.65;2.75;;;1.20;99.90;;;;;;5010471;28;20263;-52
2022/12/27 07:38:51;;;;;;;5.38;2.35;;;1.30;99.90;;;;;;5010767;28;20022;-51
2022/12/27 07:41:17;;;;;;;7.60;2.53;;;1.30;99.90;;;;;;5010740;28;20148;-47
2022/12/27 07:43:43;;;;;;;5.68;1.95;;;1.40;99.90;;;;;;5010946;28;20036;-48
2022/12/27 07:46:14;;;;;;;7.70;2.35;;;1.40;99.90;;;;;;5010957;28;20030;-48
2022/12/27 07:48:40;;;;;;;6.15;2.13;;;1.50;99.90;;;;;;5008662;28;20022;-46
2022/12/27 07:51:06;;;;;;;5.80;2.17;;;1.50;99.90;;;;;;5010409;28;20097;-46
2022/12/27 07:53:32;;;;;;;6.85;2.42;;;1.60;99.90;;;;;;5010486;28;20088;-46
2022/12/27 07:55:58;;;;;;;10.20;3.00;;;1.60;99.90;;;;;;5010903;28;20184;-46
2022/12/27 07:58:24;;;;;;;12.18;3.25;;;1.60;99.90;;;;;;5010717;28;20528;-46
2022/12/27 08:00:51;;;;;;;7.22;2.60;;;1.60;99.90;;;;;;5011227;28;20358;-49
2022/12/27 08:03:17;;;;;;;5.63;1.98;;;1.60;99.90;;;;;;5008541;28;20026;-46
2022/12/27 08:05:53;;;;;;;5.88;2.42;;;1.70;99.90;;;;;;4980589;28;20038;-46
2022/12/27 08:08:21;;;;;;;6.90;2.28;;;1.70;99.90;;;;;;4988095;28;20106;-48
2022/12/27 08:10:47;;;;;;;8.85;2.50;;;1.70;99.90;;;;;;4990690;28;20049;-49
2022/12/27 08:13:13;;;;;;;3.97;1.40;;;1.80;99.90;;;;;;4990548;28;20018;-49
2022/12/27 08:15:41;;;;;;;10.00;1.42;;;2.00;99.90;;;;;;4990497;28;20034;-49
2022/12/27 08:18:07;;;;;;;6.82;1.48;;;2.20;99.90;;;;;;4990497;28;20426;-49
2022/12/27 08:20:33;;;;;;;11.00;2.25;;;2.50;99.90;;;;;;4990458;28;20022;-49
2022/12/27 08:22:58;;;;;;;7.47;1.67;;;2.70;99.90;;;;;;4990428;28;20038;-47
2022/12/27 08:25:24;;;;;;;8.00;1.35;;;2.90;99.90;;;;;;4990387;28;20037;-48
2022/12/27 08:27:49;;;;;;;4.93;1.50;;;3.00;99.90;;;;;;4990464;28;20026;-46
2022/12/27 08:30:15;;;;;;;4.15;1.23;;;3.10;99.90;;;;;;4990349;28;20034;-49
2022/12/27 08:32:41;;;;;;;8.43;2.00;;;3.20;99.90;;;;;;4978561;28;20086;-49
2022/12/27 08:35:07;;;;;;;6.57;1.50;;;3.20;99.90;;;;;;4991646;28;20018;-47
2022/12/27 08:37:32;;;;;;;5.72;1.70;;;3.30;99.90;;;;;;4994404;28;20088;-47
2022/12/27 08:39:58;;;;;;;8.63;1.90;;;3.40;99.90;;;;;;4994196;28;20452;-49
2022/12/27 08:42:24;;;;;;;8.30;1.73;;;3.50;99.90;;;;;;4994296;28;20106;-46
2022/12/27 08:44:50;;;;;;;7.07;1.77;;;3.70;99.90;;;;;;4994059;28;20021;-47
2022/12/27 08:47:15;;;;;;;7.70;1.65;;;3.80;99.90;;;;;;4994988;28;20035;-49
2022/12/27 08:49:41;;;;;;;7.50;1.35;;;3.90;99.90;;;;;;4994038;28;20526;-46
2022/12/27 08:52:06;;;;;;;9.40;2.38;;;4.00;99.90;;;;;;4989489;28;20056;-55
2022/12/27 08:54:32;;;;;;;8.95;1.50;;;4.00;99.90;;;;;;4994721;28;20026;-47
2022/12/27 08:56:58;;;;;;;7.15;2.08;;;4.10;99.90;;;;;;4983744;28;20037;-52
2022/12/27 08:59:23;;;;;;;5.70;1.20;;;4.20;99.90;;;;;;4994533;28;20088;-50
2022/12/27 09:01:49;;;;;;;7.10;1.00;;;4.30;99.90;;;;;;4993970;28;20385;-53
2022/12/27 09:04:14;;;;;;;12.52;1.40;;;4.40;99.90;;;;;;4994222;28;20440;-51
2022/12/27 09:06:41;;;;;;;6.97;1.10;;;4.50;99.90;;;;;;4996793;28;20124;-55
2022/12/27 09:09:07;;;;;;;7.65;1.35;;;4.60;99.90;;;;;;4993652;28;20492;-47
2022/12/27 09:11:33;;;;;;;16.38;1.67;;;4.70;99.90;;;;;;4976446;28;20046;-47
2022/12/27 09:14:02;;;;;;;7.50;1.27;;;4.80;99.90;;;;;;4994920;28;20064;-50
2022/12/27 09:16:28;;;;;;;8.02;1.30;;;5.00;99.90;;;;;;4994720;28;20023;-48
2022/12/27 09:18:57;;;;;;;5.63;1.10;;;5.00;99.90;;;;;;4993205;28;20085;-53
2022/12/27 09:21:25;;;;;;;7.72;1.48;;;5.20;99.90;;;;;;4984527;28;20465;-46
2022/12/27 09:23:51;;;;;;;8.00;1.33;;;5.30;99.90;;;;;;4981336;28;20046;-46
2022/12/27 09:26:25;;;;;;;9.65;1.85;;;5.40;99.90;;;;;;4987096;28;20089;-48
2022/12/27 09:28:51;;;;;;;5.75;1.10;;;5.50;99.90;;;;;;4996887;28;20022;-50
2022/12/27 09:31:19;;;;;;;6.38;1.60;;;5.60;99.90;;;;;;5013170;28;20033;-48
2022/12/27 09:33:45;;;;;;;8.27;1.27;;;5.70;99.90;;;;;;4994853;28;20022;-50
2022/12/27 09:36:14;;;;;;;2.70;1.20;;;5.80;99.90;;;;;;4991961;28;20516;-50
2022/12/27 09:38:42;;;;;;;7.03;1.58;;;5.90;99.90;;;;;;4993215;28;20362;-48
2022/12/27 09:41:35;;;;;;;8.73;1.50;;;6.10;99.90;;;;;;4989064;28;20030;-47
2022/12/27 09:44:16;;;;;;;6.20;1.35;;;6.20;99.90;;;;;;4993189;28;20030;-48
2022/12/27 09:46:56;;;;;;;11.38;3.03;;;6.30;99.90;;;;;;4992125;28;20023;-50
2022/12/27 09:49:43;;;;;;;10.60;2.05;;;6.40;99.90;;;;;;4993704;28;20085;-48
2022/12/27 09:52:16;;;;;;;11.65;1.60;;;6.60;99.90;;;;;;4973732;28;20049;-48
2022/12/27 09:54:42;;;;;;;8.20;1.15;;;6.70;99.90;;;;;;4986701;28;20030;-47
2022/12/27 09:57:39;;;;;;;6.63;1.35;;;6.90;99.90;;;;;;4989885;28;20088;-47
2022/12/27 10:00:19;;;;;;;7.93;1.73;;;7.00;99.90;;;;;;4983640;28;20529;-47
2022/12/27 10:02:47;;;;;;;6.50;1.10;;;7.20;99.90;;;;;;4990826;28;20027;-48
2022/12/27 10:05:21;;;;;;;12.63;2.05;;;7.30;99.90;;;;;;4992670;28;20042;-48
2022/12/27 10:08:02;;;;;;;10.93;1.77;;;7.50;99.90;;;;;;4992828;28;20477;-48
2022/12/27 10:10:45;;;;;;;7.13;1.83;;;7.60;99.90;;;;;;4988487;28;20125;-47
2022/12/27 10:13:53;;;;;;;5.32;1.10;;;7.80;99.90;;;;;;4992929;28;20023;-47
2022/12/27 10:16:41;;;;;;;8.57;1.42;;;8.00;99.90;;;;;;4993126;28;20121;-47
2022/12/27 10:19:38;;;;;;;13.30;2.25;;;8.20;99.90;;;;;;4995432;28;20133;-47
2022/12/27 10:22:12;;;;;;;8.75;1.38;;;8.40;99.90;;;;;;4980616;28;20011;-48
2022/12/27 10:24:55;;;;;;;7.05;1.33;;;8.50;99.90;;;;;;4991609;28;20060;-48
2022/12/27 10:27:27;;;;;;;9.02;1.10;;;8.70;99.90;;;;;;4991580;28;20030;-48
2022/12/27 10:29:56;;;;;;;10.68;0.98;;;8.80;99.90;;;;;;4991127;28;20030;-48
2022/12/27 10:32:22;;;;;;;6.07;0.95;;;8.80;99.90;;;;;;4983397;28;20037;-47
2022/12/27 10:34:55;;;;;;;5.68;1.23;;;8.90;99.90;;;;;;4991295;28;20033;-50
2022/12/27 10:37:21;;;;;;;4.70;0.88;;;9.10;99.90;;;;;;4991356;28;20049;-47
2022/12/27 10:39:47;;;;;;;9.27;1.67;;;9.30;99.90;;;;;;4991945;28;20121;-47
2022/12/27 10:42:29;;;;;;;8.95;1.15;;;9.50;99.90;;;;;;4983979;28;20538;-48
2022/12/27 10:45:41;;;;;;;7.85;1.30;;;9.60;99.90;;;;;;4982529;28;20026;-48
2022/12/27 10:48:25;;;;;;;3.60;1.05;;;9.60;99.90;;;;;;4988579;28;20038;-49
2022/12/27 10:50:56;;;;;;;9.55;1.08;;;9.70;99.90;;;;;;4990086;28;20066;-48
2022/12/27 10:53:34;;;;;;;10.45;1.52;;;9.80;99.90;;;;;;4983186;28;20039;-47
2022/12/27 10:56:11;;;;;;;6.47;1.13;;;10.10;99.90;;;;;;4999306;28;20027;-48
2022/12/27 10:58:49;;;;;;;5.00;1.17;;;10.00;99.90;;;;;;4994216;28;20113;-48
2022/12/27 11:01:22;;;;;;;7.03;1.30;;;9.70;99.90;;;;;;4990497;28;20030;-47
2022/12/27 11:03:49;;;;;;;6.55;0.95;;;9.50;99.90;;;;;;4980800;28;20041;-47
2022/12/27 11:06:24;;;;;;;6.75;1.00;;;9.30;99.90;;;;;;4985871;28;20084;-48
2022/12/27 11:08:51;;;;;;;5.70;1.40;;;9.20;99.90;;;;;;4988254;28;20034;-50
2022/12/27 11:11:21;;;;;;;8.43;1.35;;;9.30;99.90;;;;;;4978015;28;20073;-51
2022/12/27 11:13:47;;;;;;;;;;;9.40;99.90;;;;;;4987864;28;20030;-50
2022/12/27 11:16:34;;;;;;;9.05;1.73;;;9.40;99.90;;;;;;4989495;28;19928;-50
2022/12/27 11:19:01;;;;;;;7.97;1.45;;;9.30;99.90;;;;;;4989121;28;20588;-52
2022/12/27 11:21:29;;;;;;;11.30;1.73;;;9.30;99.90;;;;;;4989770;28;20430;-48
2022/12/27 11:24:01;;;;;;;8.82;1.58;;;9.30;99.90;;;;;;4973666;28;20042;-51
2022/12/27 11:26:29;;;;;;;11.93;2.63;;;9.30;99.90;;;;;;4989189;28;20127;-50
2022/12/27 11:29:00;;;;;;;13.93;2.08;;;9.40;99.90;;;;;;4988858;28;20073;-48
2022/12/27 11:31:41;;;;;;;13.13;3.50;;;9.50;99.90;;;;;;4998740;28;20045;-48
2022/12/27 11:34:19;;;;;;;10.95;1.50;;;9.70;99.90;;;;;;4986270;28;20072;-53
2022/12/27 11:36:48;;;;;;;9.68;1.58;;;10.40;99.90;;;;;;4990450;28;20141;-49
2022/12/27 11:39:41;;;;;;;6.97;1.52;;;12.00;99.90;;;;;;4990373;28;20018;-50
2022/12/27 11:42:32;;;;;;;6.90;1.58;;;14.20;99.90;;;;;;4989409;28;20109;-51
2022/12/27 11:45:10;;;;;;;7.15;1.40;;;15.10;99.90;;;;;;4988874;28;20034;-51
2022/12/27 11:48:01;;;;;;;7.85;1.55;;;15.90;99.90;;;;;;4990406;28;20038;-47
2022/12/27 11:50:26;;;;;;;4.95;1.00;;;16.20;99.80;;;;;;4981506;28;20038;-50
2022/12/27 11:53:07;;;;;;;6.43;1.40;;;16.30;98.60;;;;;;4983960;28;20473;-51
2022/12/27 11:55:58;;;;;;;8.70;1.25;;;16.40;97.90;;;;;;4988496;28;20113;-48
2022/12/27 11:58:54;;;;;;;6.10;1.20;;;16.30;96.70;;;;;;4989565;28;20073;-48
2022/12/27 12:01:41;;;;;;;8.77;1.85;;;16.20;96.70;;;;;;4990620;28;20033;-48
2022/12/27 12:04:41;;;;;;;12.15;1.63;;;16.60;96.00;;;;;;4990235;28;20023;-51
2022/12/27 12:07:52;;;;;;;6.50;1.30;;;16.80;95.10;;;;;;4990574;28;20018;-49
2022/12/27 12:10:59;;;;;;;11.63;1.63;;;16.70;94.50;;;;;;4990229;28;20049;-47
2022/12/27 12:13:43;;;;;;;10.45;1.60;;;15.60;95.90;;;;;;4993397;28;20022;-49
2022/12/27 12:16:39;;;;;;;8.73;1.45;;;14.50;97.30;;;;;;4993651;28;20014;-49
2022/12/27 12:19:43;;;;;;;10.25;1.30;;;13.10;99.90;;;;;;4995350;28;20049;-47
2022/12/27 12:22:41;;;;;;;10.25;1.40;;;12.50;99.90;;;;;;4954460;28;20034;-50
2022/12/27 12:25:22;;;;;;;14.07;2.75;;;12.40;99.90;;;;;;4994208;28;20042;-55
2022/12/27 12:28:13;;;;;;;23.00;2.17;;;12.90;99.90;;;;;;4982185;28;20388;-48
2022/12/27 12:30:56;;;;;;;8.57;1.58;;;12.50;99.90;;;;;;4963937;28;20066;-47
2022/12/27 12:33:34;;;;;;;11.93;1.90;;;11.90;99.90;;;;;;4992608;28;20026;-51
2022/12/27 12:36:31;;;;;;;10.45;1.40;;;11.40;99.90;;;;;;4994274;28;20018;-47
2022/12/27 12:39:00;;;;;;;13.75;2.40;;;11.10;99.90;;;;;;4991895;28;20444;-46
2022/12/27 12:41:40;;;;;;;13.13;1.67;;;10.90;99.90;;;;;;4993982;28;20664;-47
2022/12/27 12:44:37;;;;;;;9.70;1.55;;;10.80;99.90;;;;;;4986516;28;20105;-48
2022/12/27 12:47:29;;;;;;;11.88;1.92;;;10.80;99.90;;;;;;4992196;28;20030;-49
2022/12/27 12:50:25;;;;;;;10.07;2.00;;;10.80;99.90;;;;;;4991507;28;20418;-47
2022/12/27 12:53:20;;;;;;;17.52;2.90;;;10.70;99.90;;;;;;4994176;28;20034;-50
2022/12/27 12:56:23;;;;;;;10.75;1.58;;;10.60;99.90;;;;;;4957249;28;20177;-47
2022/12/27 12:59:19;;;;;;;8.48;1.70;;;10.50;99.90;;;;;;4991821;28;20030;-50
2022/12/27 13:01:58;;;;;;;14.43;1.70;;;10.50;99.90;;;;;;4990284;28;20034;-54
2022/12/27 13:04:36;;;;;;;13.05;1.63;;;10.60;99.90;;;;;;4994050;28;20034;-49
2022/12/27 13:07:41;;;;;;;9.35;2.03;;;10.70;99.90;;;;;;4993098;28;20077;-53
2022/12/27 13:10:25;;;;;;;10.73;1.73;;;10.70;99.90;;;;;;4979473;28;20035;-55
2022/12/27 13:13:28;;;;;;;12.57;2.05;;;10.80;99.90;;;;;;4993643;28;20019;-48
2022/12/27 13:16:11;;;;;;;8.32;1.65;;;10.80;99.90;;;;;;4973143;28;20489;-47
2022/12/27 13:18:58;;;;;;;15.57;3.28;;;10.80;99.90;;;;;;5002623;28;20038;-51
2022/12/27 13:21:57;;;;;;;15.85;2.05;;;10.70;99.90;;;;;;4989408;28;20051;-48
2022/12/27 13:24:52;;;;;;;19.13;3.25;;;10.80;99.90;;;;;;5003821;28;20116;-47
2022/12/27 13:27:34;;;;;;;13.93;4.13;;;10.80;99.90;;;;;;5013153;28;20105;-51
2022/12/27 13:30:34;;;;;;;17.55;4.28;;;10.90;99.90;;;;;;5013788;28;20030;-52
2022/12/27 13:33:28;;;;;;;22.23;9.13;;;11.00;99.90;;;;;;4999955;28;20481;-48
2022/12/27 13:36:19;;;;;;;21.33;4.18;;;11.10;99.90;;;;;;4996410;28;20029;-51
2022/12/27 13:39:22;;;;;;;14.30;2.83;;;10.90;99.90;;;;;;4991864;28;20022;-48
2022/12/27 13:42:17;;;;;;;9.80;2.05;;;10.90;99.90;;;;;;4991891;28;20485;-49
2022/12/27 13:44:52;;;;;;;20.42;7.40;;;11.00;99.90;;;;;;4988557;28;20030;-54
2022/12/27 13:47:55;;;;;;;16.70;4.00;;;11.10;99.90;;;;;;4991335;28;20030;-52
2022/12/27 13:50:55;;;;;;;9.18;2.22;;;11.00;99.90;;;;;;4982325;28;20038;-51
2022/12/27 13:53:38;;;;;;;15.98;4.57;;;10.80;99.90;;;;;;4990310;28;20484;-47
2022/12/27 13:56:21;;;;;;;9.48;2.17;;;10.60;99.90;;;;;;4977911;28;20041;-48
2022/12/27 13:59:02;;;;;;;19.67;3.33;;;10.80;99.90;;;;;;4989846;28;20072;-48
2022/12/27 14:01:27;;;;;;;12.65;2.08;;;10.90;99.90;;;;;;4992599;28;20200;-49
2022/12/27 14:04:12;;;;;;;16.42;2.45;;;11.20;99.90;;;;;;4992571;28;20482;-47
2022/12/27 14:07:03;;;;;;;15.13;2.10;;;11.40;99.90;;;;;;4992503;28;20018;-47
2022/12/27 14:09:53;;;;;;;12.73;1.98;;;11.80;99.90;;;;;;4945703;28;20058;-48
2022/12/27 14:12:40;;;;;;;13.00;2.08;;;12.10;99.90;;;;;;4981961;28;20038;-52
2022/12/27 14:15:11;;;;;;;13.27;2.00;;;11.90;99.90;;;;;;4975941;28;20031;-48
2022/12/27 14:17:47;;;;;;;11.27;1.75;;;11.70;99.90;;;;;;4992541;28;20022;-48
2022/12/27 14:20:31;;;;;;;14.10;1.88;;;11.40;99.90;;;;;;4992764;28;20042;-46
2022/12/27 14:23:13;;;;;;;15.18;2.35;;;11.30;99.90;;;;;;4987965;28;20370;-46
2022/12/27 14:26:06;;;;;;;20.88;3.13;;;11.20;99.90;;;;;;5012528;28;20030;-49
2022/12/27 14:28:53;;;;;;;12.70;2.55;;;11.10;99.90;;;;;;4988724;28;20108;-47
2022/12/27 14:31:43;;;;;;;10.98;1.73;;;11.00;99.90;;;;;;4996784;28;20109;-45
2022/12/27 14:34:42;;;;;;;12.32;3.95;;;10.90;99.90;;;;;;4975435;28;20054;-49
2022/12/27 14:37:40;;;;;;;10.18;2.47;;;10.80;99.90;;;;;;4986941;28;20027;-46
2022/12/27 14:40:11;;;;;;;10.00;1.90;;;10.80;99.90;;;;;;4983480;28;20034;-49
2022/12/27 14:42:59;;;;;;;11.57;1.92;;;10.70;99.90;;;;;;4991434;28;20484;-52
2022/12/27 14:45:46;;;;;;;14.27;2.63;;;10.70;99.90;;;;;;4992560;28;20399;-48
2022/12/27 14:48:30;;;;;;;11.30;2.35;;;10.60;99.90;;;;;;4992846;28;20026;-48
2022/12/27 14:51:40;;;;;;;10.50;2.33;;;10.60;99.90;;;;;;4987950;28;20393;-47
2022/12/27 14:54:18;;;;;;;15.02;3.17;;;10.60;99.90;;;;;;4991402;28;20026;-48
2022/12/27 14:56:53;;;;;;;9.68;2.15;;;10.60;99.90;;;;;;4989502;28;20057;-49
2022/12/27 14:59:31;;;;;;;11.13;2.40;;;10.50;99.90;;;;;;4992315;28;20074;-47
2022/12/27 15:02:07;;;;;;;11.80;2.30;;;10.50;99.90;;;;;;4980996;28;20113;-47
2022/12/27 15:04:51;;;;;;;11.05;1.80;;;10.40;99.90;;;;;;4991920;28;20034;-51
2022/12/27 15:07:35;;;;;;;6.88;1.40;;;10.30;99.90;;;;;;4991428;28;20473;-48
2022/12/27 15:10:25;;;;;;;11.23;2.00;;;10.30;99.90;;;;;;4973725;28;20034;-51